Main page
METAR-TAF:

METAR-TAF

Airports :

Tartu Airport

Tartu, Estonia

latitude: 58-18N, longitude: 026-44E, elevation: 59 m

Current weather observation

The report was made 41 minutes ago, at 13:20 UTC
Wind 11 kt from the West/Southwest, varying between South/Southwest and West
Temperature 16°C
Humidity 72%
Pressure 1014 hPa
Visibility 10 km or more
Scattered clouds at a height of 2200 ft
Broken clouds at a height of 3100 ft

METAR: EETU 211320Z 25011KT 210V280 9999 SCT022 BKN031 16/11 Q1014

Time: 17:01 (14:01 UTC)


TAF: missing

Weather observations and forecasts of more than 4000 airports (METAR and TAF reports).

The available stations are represented by yellow and red dots on the map.

Hover mouse over dot to see the name of the station.

Then click to see weather observations and forecasts.

To change the map : click on the green buttons with a black cross to zoom in, on the green button with a dash to zoom out, or on the green arrows for adjacent maps.


METAR-TAF: